Time;durP1;ratioP1;P1;durP2;ratioP2;P2;SDS_P1;SDS_P2;PMS_P1;PMS_P2;Temp;Humidity;BMP_temperature;BMP_pressure;BME280_temperature;BME280_humidity;BME280_pressure;Samples;Min_cycle;Max_cycle;Signal;HPM_P1;HPM_P2
2022/02/24 00:01:53;;;;;;;15.60;9.07;;;;;;;;;;7332696;19;162537;-16
2022/02/24 00:04:24;;;;;;;14.40;9.00;;;;;;;;;;7331044;19;154033;-16
2022/02/24 00:06:56;;;;;;;14.75;8.88;;;;;;;;;;7331154;19;153653;-16
2022/02/24 00:09:27;;;;;;;12.10;8.35;;;;;;;;;;7333785;19;161804;-16
2022/02/24 00:12:02;;;;;;;12.63;8.20;;;;;;;;;;7331669;19;162614;-16
2022/02/24 00:14:36;;;;;;;11.13;8.23;;;;;;;;;;7333652;19;154493;-16
2022/02/24 00:17:08;;;;;;;11.95;7.93;;;;;;;;;;7333249;19;153525;-16
2022/02/24 00:19:39;;;;;;;13.85;8.25;;;;;;;;;;7333429;19;161929;-15
2022/02/24 00:22:10;;;;;;;10.60;8.13;;;;;;;;;;7333579;19;162654;-16
2022/02/24 00:24:41;;;;;;;11.02;7.15;;;;;;;;;;7333937;19;154026;-15
2022/02/24 00:27:12;;;;;;;11.32;8.15;;;;;;;;;;7332675;19;153675;-15
2022/02/24 00:29:47;;;;;;;11.50;7.22;;;;;;;;;;7332384;19;161963;-16
2022/02/24 00:32:18;;;;;;;10.73;7.65;;;;;;;;;;7330653;19;162569;-16
2022/02/24 00:34:49;;;;;;;11.75;7.85;;;;;;;;;;7332813;19;153988;-18
2022/02/24 00:37:21;;;;;;;11.18;7.97;;;;;;;;;;7333455;19;153332;-16
2022/02/24 00:39:52;;;;;;;11.15;7.50;;;;;;;;;;7332476;19;161973;-16
2022/02/24 00:42:24;;;;;;;11.13;7.55;;;;;;;;;;7331282;19;162680;-15
2022/02/24 00:44:58;;;;;;;14.13;7.95;;;;;;;;;;7333034;19;154273;-15
2022/02/24 00:47:29;;;;;;;12.55;7.30;;;;;;;;;;7331677;19;153566;-15
2022/02/24 00:50:00;;;;;;;12.18;7.70;;;;;;;;;;7333052;19;161482;-17
2022/02/24 00:52:32;;;;;;;15.50;8.63;;;;;;;;;;7332828;19;163252;-16
2022/02/24 13:50:43;;;;;;;7.85;1.75;;;;;;;;;;7198325;19;3266956;-15
2022/02/24 13:53:23;;;;;;;1.50;1.40;;;;;;;;;;7364513;19;153844;-14
2022/02/24 13:55:56;;;;;;;2.95;1.40;;;;;;;;;;7364388;19;161997;-14
2022/02/24 13:58:29;;;;;;;4.18;1.55;;;;;;;;;;7363495;19;162498;-15
2022/02/24 14:01:01;;;;;;;;;;;;;;;;;;7364968;19;154057;-15
2022/02/24 14:03:39;;;;;;;1.90;1.52;;;;;;;;;;7364515;19;153371;-14
2022/02/24 14:06:17;;;;;;;1.88;1.23;;;;;;;;;;7363957;19;161875;-14
2022/02/24 14:08:50;;;;;;;1.58;1.48;;;;;;;;;;7363947;19;162609;-13
2022/02/24 14:11:25;;;;;;;2.15;1.70;;;;;;;;;;7365609;19;153874;-15
2022/02/24 14:13:58;;;;;;;6.57;2.35;;;;;;;;;;7363288;19;154085;-16
2022/02/24 14:16:33;;;;;;;4.10;1.73;;;;;;;;;;7367481;19;162244;-16
2022/02/24 14:19:06;;;;;;;3.75;1.67;;;;;;;;;;7365230;19;162446;-17
2022/02/24 14:21:40;;;;;;;3.38;1.63;;;;;;;;;;7367665;19;153910;-16
2022/02/24 14:24:12;;;;;;;4.43;2.20;;;;;;;;;;7362298;19;153661;-17
2022/02/24 14:26:43;;;;;;;1.77;1.55;;;;;;;;;;7366659;19;161589;-16
2022/02/24 14:29:19;;;;;;;2.53;1.35;;;;;;;;;;7365599;19;162460;-15
2022/02/24 14:31:50;;;;;;;4.88;1.63;;;;;;;;;;7367286;19;154085;-16
2022/02/24 14:34:22;;;;;;;3.33;1.70;;;;;;;;;;7366552;19;153639;-16
2022/02/24 14:36:56;;;;;;;1.98;1.70;;;;;;;;;;7364633;19;161779;-15
2022/02/24 14:39:29;;;;;;;3.15;1.58;;;;;;;;;;7365254;19;162615;-15
2022/02/24 14:42:01;;;;;;;4.40;1.45;;;;;;;;;;7367003;19;154034;-15
2022/02/24 14:44:32;;;;;;;12.38;5.55;;;;;;;;;;7363046;19;153629;-14
2022/02/24 14:47:03;;;;;;;10.82;3.70;;;;;;;;;;7362266;19;161819;-14
2022/02/24 14:49:35;;;;;;;6.07;1.85;;;;;;;;;;7357331;19;162793;-15
2022/02/24 14:52:09;;;;;;;4.25;2.15;;;;;;;;;;7334312;19;153963;-15
2022/02/24 14:54:41;;;;;;;4.00;2.05;;;;;;;;;;7334232;19;153616;-14
2022/02/24 14:57:15;;;;;;;6.30;2.65;;;;;;;;;;7333711;19;162136;-15
2022/02/24 14:59:46;;;;;;;7.05;2.50;;;;;;;;;;7331409;19;162895;-14
2022/02/24 15:02:18;;;;;;;7.38;2.78;;;;;;;;;;7333622;19;154040;-14
2022/02/24 15:05:05;;;;;;;7.93;3.00;;;;;;;;;;7333626;19;153527;-16
2022/02/24 15:07:39;;;;;;;5.22;2.40;;;;;;;;;;7332207;19;161925;-14
2022/02/24 15:10:11;;;;;;;4.55;2.42;;;;;;;;;;7333302;19;162558;-14
2022/02/24 15:12:43;;;;;;;4.17;2.53;;;;;;;;;;7333763;19;153951;-15
2022/02/24 15:15:16;;;;;;;4.90;2.20;;;;;;;;;;7333722;19;153619;-15
2022/02/24 15:17:49;;;;;;;4.10;2.65;;;;;;;;;;7333020;19;161972;-15
2022/02/24 15:20:20;;;;;;;5.93;2.42;;;;;;;;;;7330667;19;162808;-16
2022/02/24 15:22:54;;;;;;;4.40;2.25;;;;;;;;;;7333372;19;154049;-14
2022/02/24 15:25:25;;;;;;;6.70;2.42;;;;;;;;;;7333099;19;153555;-14
2022/02/24 15:27:57;;;;;;;4.30;2.38;;;;;;;;;;7331415;19;161889;-14
2022/02/24 15:30:28;;;;;;;4.88;2.33;;;;;;;;;;7332478;19;162370;-15
2022/02/24 15:32:59;;;;;;;4.93;2.17;;;;;;;;;;7333032;19;154143;-15
2022/02/24 15:35:32;;;;;;;5.45;2.53;;;;;;;;;;7332885;19;153574;-14
2022/02/24 15:38:06;;;;;;;4.35;2.17;;;;;;;;;;7332586;19;162121;-16
2022/02/24 15:40:38;;;;;;;5.25;2.15;;;;;;;;;;7329449;19;162847;-21
2022/02/24 15:43:09;;;;;;;5.22;2.05;;;;;;;;;;7332923;19;154080;-16
2022/02/24 15:45:41;;;;;;;5.57;2.58;;;;;;;;;;7332983;19;153642;-16
2022/02/24 15:48:12;;;;;;;4.00;2.47;;;;;;;;;;7331155;19;161999;-27
2022/02/24 15:50:45;;;;;;;3.13;1.90;;;;;;;;;;7329772;19;162328;-25
2022/02/24 15:53:20;;;;;;;4.63;2.30;;;;;;;;;;7332752;19;153948;-24
2022/02/24 15:55:51;;;;;;;4.97;2.50;;;;;;;;;;7332842;19;153563;-14
2022/02/24 15:58:23;;;;;;;5.43;2.70;;;;;;;;;;7332052;19;162517;-16
2022/02/24 16:00:54;;;;;;;3.75;2.25;;;;;;;;;;7330180;19;162655;-16
2022/02/24 16:03:25;;;;;;;4.18;2.30;;;;;;;;;;7330109;19;153960;-15
2022/02/24 16:05:57;;;;;;;4.05;1.75;;;;;;;;;;7332230;19;153579;-16
2022/02/24 16:08:34;;;;;;;3.92;2.40;;;;;;;;;;7331746;19;161943;-15
2022/02/24 16:11:08;;;;;;;4.15;2.15;;;;;;;;;;7331671;19;162743;-15
2022/02/24 16:13:39;;;;;;;6.60;2.75;;;;;;;;;;7332308;19;154100;-15
2022/02/24 16:16:11;;;;;;;3.05;2.17;;;;;;;;;;7331817;19;153737;-16
2022/02/24 16:18:42;;;;;;;5.20;1.90;;;;;;;;;;7331562;19;162067;-15
2022/02/24 16:21:13;;;;;;;3.83;2.03;;;;;;;;;;7328036;19;162388;-13
2022/02/24 16:23:47;;;;;;;4.03;2.28;;;;;;;;;;7330361;19;154119;-17
2022/02/24 16:26:19;;;;;;;3.10;2.08;;;;;;;;;;7331487;19;153583;-16
2022/02/24 16:28:51;;;;;;;2.83;1.80;;;;;;;;;;7330989;19;162388;-15
2022/02/24 16:31:29;;;;;;;3.47;1.97;;;;;;;;;;7331037;19;162337;-15
2022/02/24 16:34:06;;;;;;;2.78;2.33;;;;;;;;;;7330822;19;153957;-16
2022/02/24 16:36:37;;;;;;;4.65;2.10;;;;;;;;;;7331003;19;153706;-16
2022/02/24 16:39:11;;;;;;;3.60;2.00;;;;;;;;;;7330803;19;161802;-16
2022/02/24 16:41:45;;;;;;;3.45;2.13;;;;;;;;;;7328406;19;162568;-16
2022/02/24 16:44:16;;;;;;;3.90;2.03;;;;;;;;;;7331010;19;154069;-16
2022/02/24 16:46:48;;;;;;;2.47;1.92;;;;;;;;;;7330936;19;153471;-16
2022/02/24 16:49:19;;;;;;;4.75;2.03;;;;;;;;;;7329483;19;162076;-16
2022/02/24 16:51:51;;;;;;;4.78;1.95;;;;;;;;;;7330416;19;162338;-16
2022/02/24 16:54:25;;;;;;;2.40;1.65;;;;;;;;;;7329771;19;153963;-16
2022/02/24 16:56:57;;;;;;;3.08;1.92;;;;;;;;;;7330555;19;153575;-16
2022/02/24 16:59:29;;;;;;;1.98;1.77;;;;;;;;;;7330268;19;161774;-16
2022/02/24 17:02:00;;;;;;;3.33;1.90;;;;;;;;;;7327651;19;162341;-15
2022/02/24 17:04:32;;;;;;;3.00;1.95;;;;;;;;;;7328898;19;154214;-15
2022/02/24 17:07:05;;;;;;;4.03;2.37;;;;;;;;;;7329222;19;153747;-15
2022/02/24 17:09:42;;;;;;;3.33;1.80;;;;;;;;;;7330145;19;161759;-15
2022/02/24 17:12:14;;;;;;;2.80;1.80;;;;;;;;;;7328613;19;162359;-15
2022/02/24 17:14:47;;;;;;;2.80;1.75;;;;;;;;;;7329470;19;154688;-15
2022/02/24 17:17:20;;;;;;;3.60;2.17;;;;;;;;;;7329847;19;153736;-16
2022/02/24 17:19:54;;;;;;;2.97;2.05;;;;;;;;;;7329286;19;161993;-15
2022/02/24 17:22:26;;;;;;;3.88;1.92;;;;;;;;;;7326763;19;162537;-16
2022/02/24 17:25:02;;;;;;;3.92;1.95;;;;;;;;;;7329855;19;154024;-15
2022/02/24 17:27:34;;;;;;;4.35;2.00;;;;;;;;;;7329696;19;153613;-16
2022/02/24 17:30:07;;;;;;;2.42;1.73;;;;;;;;;;7328629;19;161841;-16
2022/02/24 17:32:38;;;;;;;4.53;1.83;;;;;;;;;;7329101;19;162340;-16
2022/02/24 17:35:10;;;;;;;2.28;1.50;;;;;;;;;;7329780;19;154070;-15
2022/02/24 17:37:42;;;;;;;2.83;1.70;;;;;;;;;;7329328;19;153501;-15
2022/02/24 17:40:19;;;;;;;3.60;2.17;;;;;;;;;;7329085;19;161882;-15
2022/02/24 17:42:50;;;;;;;2.97;1.90;;;;;;;;;;7326061;19;162636;-14
2022/02/24 17:45:22;;;;;;;3.35;1.85;;;;;;;;;;7329033;19;153921;-15
2022/02/24 17:47:54;;;;;;;;;;;;;;;;;;7329970;19;153681;-16
2022/02/24 17:50:26;;;;;;;1.65;1.48;;;;;;;;;;7326609;19;162074;-15
2022/02/24 17:52:57;;;;;;;2.15;1.60;;;;;;;;;;7328683;19;162260;-15
2022/02/24 17:55:31;;;;;;;2.83;1.70;;;;;;;;;;7328987;19;154045;-16
2022/02/24 17:58:03;;;;;;;1.58;1.48;;;;;;;;;;7328882;19;153485;-15
2022/02/24 18:00:34;;;;;;;2.47;1.63;;;;;;;;;;7328600;19;161884;-15
2022/02/24 18:03:06;;;;;;;3.55;1.83;;;;;;;;;;7324185;19;162355;-15
2022/02/24 18:05:38;;;;;;;1.85;1.67;;;;;;;;;;7328597;19;153947;-15
2022/02/24 18:08:09;;;;;;;1.98;1.50;;;;;;;;;;7328465;19;153706;-15
2022/02/24 18:10:44;;;;;;;2.20;1.83;;;;;;;;;;7327957;19;161931;-15
2022/02/24 18:13:16;;;;;;;2.20;1.40;;;;;;;;;;7328003;19;162494;-14
2022/02/24 18:15:48;;;;;;;2.38;1.77;;;;;;;;;;7328313;19;154027;-15
2022/02/24 18:18:19;;;;;;;2.85;1.52;;;;;;;;;;7328013;19;153778;-14
2022/02/24 18:20:51;;;;;;;6.35;3.28;;;;;;;;;;7326422;19;161802;-16
2022/02/24 18:23:22;;;;;;;4.55;2.28;;;;;;;;;;7326131;19;162563;-16
2022/02/24 18:25:56;;;;;;;5.45;2.78;;;;;;;;;;7332729;19;154573;-16
2022/02/24 18:28:30;;;;;;;2.75;2.10;;;;;;;;;;7335977;19;154051;-16
2022/02/24 18:31:02;;;;;;;2.60;2.10;;;;;;;;;;7335719;19;162118;-16
2022/02/24 18:33:33;;;;;;;4.80;1.90;;;;;;;;;;7333178;19;162486;-15
2022/02/24 18:36:22;;;;;;;2.40;1.52;;;;;;;;;;7334976;19;154165;-16
2022/02/24 18:38:53;;;;;;;3.70;1.77;;;;;;;;;;7334564;19;153652;-15
2022/02/24 18:41:28;;;;;;;3.05;1.70;;;;;;;;;;7333809;19;161777;-16
2022/02/24 18:44:00;;;;;;;2.63;1.55;;;;;;;;;;7333875;19;162335;-15
2022/02/24 18:46:32;;;;;;;4.87;2.40;;;;;;;;;;7334200;19;153891;-15
2022/02/24 18:49:05;;;;;;;3.78;2.10;;;;;;;;;;7335598;19;153783;-15
2022/02/24 18:51:37;;;;;;;5.38;2.03;;;;;;;;;;7332722;19;161978;-14
2022/02/24 18:54:08;;;;;;;4.13;2.33;;;;;;;;;;7337094;19;162830;-15
2022/02/24 18:56:42;;;;;;;2.92;1.73;;;;;;;;;;7336434;19;154005;-15
2022/02/24 18:59:16;;;;;;;1.83;1.40;;;;;;;;;;7333553;19;153648;-15
2022/02/24 19:01:48;;;;;;;3.15;1.80;;;;;;;;;;7336274;19;162073;-16
2022/02/24 19:04:20;;;;;;;4.23;1.87;;;;;;;;;;7333396;19;162446;-16
2022/02/24 19:06:51;;;;;;;2.90;1.48;;;;;;;;;;7335461;19;153761;-15
2022/02/24 19:09:37;;;;;;;2.20;1.42;;;;;;;;;;7336700;19;153525;-15
2022/02/24 19:12:12;;;;;;;2.15;1.90;;;;;;;;;;7334677;19;162131;-16
2022/02/24 19:14:43;;;;;;;3.28;1.80;;;;;;;;;;7332569;19;162467;-16
2022/02/24 19:17:15;;;;;;;4.30;1.83;;;;;;;;;;7333311;19;154098;-14
2022/02/24 19:19:46;;;;;;;4.78;2.65;;;;;;;;;;7336191;19;153548;-16
2022/02/24 19:22:17;;;;;;;3.72;2.13;;;;;;;;;;7334417;19;162125;-15
2022/02/24 19:24:49;;;;;;;2.70;1.65;;;;;;;;;;7332359;19;162347;-16
2022/02/24 19:27:23;;;;;;;4.93;1.80;;;;;;;;;;7332854;19;154206;-15
2022/02/24 19:29:54;;;;;;;4.00;1.90;;;;;;;;;;7331724;19;153573;-16
2022/02/24 19:32:26;;;;;;;4.55;2.72;;;;;;;;;;7333628;19;161791;-15
2022/02/24 19:35:00;;;;;;;4.47;2.03;;;;;;;;;;7332166;19;162501;-17
2022/02/24 19:37:32;;;;;;;4.32;2.65;;;;;;;;;;7335304;19;154092;-16
2022/02/24 19:40:04;;;;;;;4.88;2.35;;;;;;;;;;7332832;19;153570;-14
2022/02/24 19:42:38;;;;;;;3.58;2.10;;;;;;;;;;7330936;19;161922;-15
2022/02/24 19:45:12;;;;;;;4.65;2.47;;;;;;;;;;7336628;19;162316;-16
2022/02/24 19:47:43;;;;;;;3.58;1.85;;;;;;;;;;7335164;19;153950;-15
2022/02/24 19:50:14;;;;;;;3.75;1.73;;;;;;;;;;7330280;19;153495;-16
2022/02/24 19:52:46;;;;;;;4.95;2.08;;;;;;;;;;7335687;19;161757;-15
2022/02/24 19:55:19;;;;;;;3.63;2.15;;;;;;;;;;7332037;19;162345;-17
2022/02/24 19:57:53;;;;;;;3.65;2.13;;;;;;;;;;7332165;19;154234;-16
2022/02/24 20:00:25;;;;;;;2.85;1.98;;;;;;;;;;7330402;19;153609;-15
2022/02/24 20:02:57;;;;;;;5.13;2.22;;;;;;;;;;7335099;19;161986;-16
2022/02/24 20:05:32;;;;;;;3.58;1.85;;;;;;;;;;7331299;19;162368;-16
2022/02/24 20:08:03;;;;;;;3.92;2.15;;;;;;;;;;7334252;19;154030;-16
2022/02/24 20:10:36;;;;;;;4.43;2.35;;;;;;;;;;7335811;19;153610;-16
2022/02/24 20:13:10;;;;;;;5.78;2.00;;;;;;;;;;7331767;19;162034;-16
2022/02/24 20:15:43;;;;;;;2.22;1.70;;;;;;;;;;7331840;19;162347;-15
2022/02/24 20:18:14;;;;;;;3.57;2.00;;;;;;;;;;7330982;19;154023;-17
2022/02/24 20:20:46;;;;;;;2.72;1.55;;;;;;;;;;7332962;19;153701;-16
2022/02/24 20:23:18;;;;;;;2.37;1.53;;;;;;;;;;7333356;19;161851;-16
2022/02/24 20:25:51;;;;;;;2.72;1.80;;;;;;;;;;7331051;19;162361;-16
2022/02/24 20:28:25;;;;;;;5.63;2.60;;;;;;;;;;7330324;19;154022;-16
2022/02/24 20:30:57;;;;;;;4.15;1.98;;;;;;;;;;7331415;19;153534;-16
2022/02/24 20:33:29;;;;;;;2.80;1.40;;;;;;;;;;7330686;19;162131;-16
2022/02/24 20:36:00;;;;;;;3.17;1.80;;;;;;;;;;7329568;19;162423;-16
2022/02/24 20:38:31;;;;;;;3.95;1.88;;;;;;;;;;7331208;19;153979;-16
2022/02/24 20:41:03;;;;;;;2.40;1.73;;;;;;;;;;7330900;19;153569;-16
2022/02/24 20:43:37;;;;;;;3.72;1.70;;;;;;;;;;7328743;19;161852;-15
2022/02/24 20:46:11;;;;;;;3.88;1.80;;;;;;;;;;7330476;19;162402;-15
2022/02/24 20:48:42;;;;;;;3.10;1.90;;;;;;;;;;7329884;19;154071;-15
2022/02/24 20:51:14;;;;;;;2.25;1.52;;;;;;;;;;7332592;19;153558;-16
2022/02/24 20:53:45;;;;;;;8.52;2.00;;;;;;;;;;7330216;19;161982;-16
2022/02/24 20:56:17;;;;;;;3.40;2.05;;;;;;;;;;7332321;19;162674;-15
2022/02/24 20:58:50;;;;;;;4.93;1.80;;;;;;;;;;7330431;19;153957;-15
2022/02/24 21:01:22;;;;;;;5.07;3.00;;;;;;;;;;7330396;19;153444;-16
2022/02/24 21:03:54;;;;;;;3.72;1.70;;;;;;;;;;7332878;19;162037;-15
2022/02/24 21:06:26;;;;;;;6.00;2.55;;;;;;;;;;7330700;19;162895;-16
2022/02/24 21:08:59;;;;;;;3.15;1.88;;;;;;;;;;7330517;19;153933;-16
2022/02/24 21:11:32;;;;;;;5.10;1.95;;;;;;;;;;7330006;19;153646;-16
2022/02/24 21:14:06;;;;;;;3.17;2.22;;;;;;;;;;7331872;19;161882;-16
2022/02/24 21:16:37;;;;;;;3.45;1.80;;;;;;;;;;7329964;19;162546;-16
2022/02/24 21:19:09;;;;;;;3.10;1.63;;;;;;;;;;7330229;19;153997;-16
2022/02/24 21:21:40;;;;;;;3.70;1.95;;;;;;;;;;7331433;19;153500;-16
2022/02/24 21:24:12;;;;;;;3.72;1.80;;;;;;;;;;7328591;19;161854;-16
2022/02/24 21:26:43;;;;;;;2.53;1.85;;;;;;;;;;7329859;19;162398;-16
2022/02/24 21:29:17;;;;;;;3.55;1.80;;;;;;;;;;7332843;19;154201;-16
2022/02/24 21:31:49;;;;;;;3.17;1.88;;;;;;;;;;7330153;19;153684;-15
2022/02/24 21:34:21;;;;;;;3.05;1.67;;;;;;;;;;7329366;19;162021;-15
2022/02/24 21:36:52;;;;;;;3.35;2.08;;;;;;;;;;7329926;19;162572;-16
2022/02/24 21:39:23;;;;;;;2.55;1.85;;;;;;;;;;7329753;19;154010;-21
2022/02/24 21:41:55;;;;;;;2.47;1.95;;;;;;;;;;7328349;19;153768;-17
2022/02/24 21:44:30;;;;;;;2.92;1.90;;;;;;;;;;7327753;19;161931;-16
2022/02/24 21:47:02;;;;;;;1.88;1.55;;;;;;;;;;7329313;19;162321;-16
2022/02/24 21:49:34;;;;;;;3.65;1.75;;;;;;;;;;7328398;19;154015;-15
2022/02/24 21:52:06;;;;;;;3.10;1.75;;;;;;;;;;7330867;19;153766;-16
2022/02/24 21:54:37;;;;;;;2.00;1.50;;;;;;;;;;7328914;19;162018;-16
2022/02/24 21:57:09;;;;;;;3.80;2.00;;;;;;;;;;7328825;19;162604;-16
2022/02/24 21:59:43;;;;;;;3.85;1.73;;;;;;;;;;7327374;19;154119;-16
2022/02/24 22:02:15;;;;;;;4.10;1.60;;;;;;;;;;7339274;19;153539;-16
2022/02/24 22:04:47;;;;;;;2.92;1.90;;;;;;;;;;7337546;19;161847;-15
2022/02/24 22:07:20;;;;;;;2.90;1.45;;;;;;;;;;7338735;19;162471;-15
2022/02/24 22:09:53;;;;;;;4.00;1.80;;;;;;;;;;7338913;19;153994;-16
2022/02/24 22:12:24;;;;;;;3.20;1.52;;;;;;;;;;7339429;19;153710;-17
2022/02/24 22:14:58;;;;;;;5.63;2.08;;;;;;;;;;7338639;19;162096;-16
2022/02/24 22:17:31;;;;;;;3.15;1.60;;;;;;;;;;7338971;19;162550;-16
2022/02/24 22:20:03;;;;;;;3.27;1.30;;;;;;;;;;7339395;19;154172;-16
2022/02/24 22:22:38;;;;;;;3.80;1.77;;;;;;;;;;7338466;19;153583;-16
2022/02/24 22:25:10;;;;;;;3.97;1.83;;;;;;;;;;7336734;19;161881;-16
2022/02/24 22:27:41;;;;;;;3.37;1.70;;;;;;;;;;7338641;19;162744;-16
2022/02/24 22:30:16;;;;;;;2.83;1.67;;;;;;;;;;7337492;19;153954;-17
2022/02/24 22:32:48;;;;;;;3.83;1.50;;;;;;;;;;7336902;19;153548;-17
2022/02/24 22:35:22;;;;;;;7.22;1.77;;;;;;;;;;7335749;19;161810;-16
2022/02/24 22:37:53;;;;;;;10.90;2.25;;;;;;;;;;7335039;19;162418;-16
